sensor_id;sensor_type;location;lat;lon;timestamp;P1;durP1;ratioP1;P2;durP2;ratioP2
84623;SDS011;74849;51.340;12.610;2024-02-15T05:31:13;2.35;;;1.33;;
84623;SDS011;74849;51.340;12.610;2024-02-15T05:33:49;4.05;;;2.00;;
84623;SDS011;74849;51.340;12.610;2024-02-15T05:36:17;4.53;;;1.95;;
84623;SDS011;74849;51.340;12.610;2024-02-15T05:38:49;2.58;;;1.58;;
84623;SDS011;74849;51.340;12.610;2024-02-15T05:41:17;2.42;;;1.85;;
84623;SDS011;74849;51.340;12.610;2024-02-15T05:43:46;7.35;;;3.90;;
84623;SDS011;74849;51.340;12.610;2024-02-15T05:46:19;10.60;;;5.57;;
84623;SDS011;74849;51.340;12.610;2024-02-15T05:48:49;5.28;;;2.30;;
84623;SDS011;74849;51.340;12.610;2024-02-15T05:51:17;5.13;;;2.95;;
84623;SDS011;74849;51.340;12.610;2024-02-15T05:53:44;5.93;;;3.10;;
84623;SDS011;74849;51.340;12.610;2024-02-15T05:56:11;8.98;;;3.80;;
84623;SDS011;74849;51.340;12.610;2024-02-15T05:58:39;7.40;;;3.20;;
84623;SDS011;74849;51.340;12.610;2024-02-15T06:01:06;9.13;;;3.78;;
84623;SDS011;74849;51.340;12.610;2024-02-15T06:03:33;6.93;;;2.70;;
84623;SDS011;74849;51.340;12.610;2024-02-15T06:06:03;4.28;;;2.03;;
84623;SDS011;74849;51.340;12.610;2024-02-15T06:08:33;3.20;;;1.58;;
84623;SDS011;74849;51.340;12.610;2024-02-15T06:11:01;3.38;;;1.45;;
84623;SDS011;74849;51.340;12.610;2024-02-15T06:13:29;2.63;;;1.90;;
84623;SDS011;74849;51.340;12.610;2024-02-15T06:15:56;3.45;;;1.50;;
84623;SDS011;74849;51.340;12.610;2024-02-15T06:18:25;3.75;;;1.67;;
84623;SDS011;74849;51.340;12.610;2024-02-15T06:20:57;2.35;;;1.80;;
84623;SDS011;74849;51.340;12.610;2024-02-15T06:23:28;2.45;;;1.48;;
84623;SDS011;74849;51.340;12.610;2024-02-15T06:25:55;2.40;;;1.38;;
84623;SDS011;74849;51.340;12.610;2024-02-15T06:28:23;3.65;;;1.90;;
84623;SDS011;74849;51.340;12.610;2024-02-15T06:31:09;2.28;;;1.27;;
84623;SDS011;74849;51.340;12.610;2024-02-15T06:33:57;3.40;;;1.80;;
84623;SDS011;74849;51.340;12.610;2024-02-15T06:39:31;3.15;;;2.08;;
84623;SDS011;74849;51.340;12.610;2024-02-15T06:42:08;2.75;;;2.13;;
84623;SDS011;74849;51.340;12.610;2024-02-15T06:44:44;3.60;;;2.17;;
84623;SDS011;74849;51.340;12.610;2024-02-15T06:47:12;2.55;;;1.90;;
84623;SDS011;74849;51.340;12.610;2024-02-15T06:49:42;2.97;;;1.90;;
84623;SDS011;74849;51.340;12.610;2024-02-15T06:52:11;4.95;;;1.98;;
84623;SDS011;74849;51.340;12.610;2024-02-15T06:54:39;3.25;;;2.05;;
84623;SDS011;74849;51.340;12.610;2024-02-15T06:57:06;2.55;;;1.48;;
84623;SDS011;74849;51.340;12.610;2024-02-15T06:59:33;2.75;;;1.75;;
84623;SDS011;74849;51.340;12.610;2024-02-15T07:02:01;4.10;;;2.13;;
84623;SDS011;74849;51.340;12.610;2024-02-15T07:04:30;2.63;;;2.03;;
84623;SDS011;74849;51.340;12.610;2024-02-15T07:06:58;4.47;;;2.70;;
84623;SDS011;74849;51.340;12.610;2024-02-15T07:09:25;6.10;;;2.30;;
84623;SDS011;74849;51.340;12.610;2024-02-15T07:11:53;5.05;;;2.90;;
84623;SDS011;74849;51.340;12.610;2024-02-15T07:14:20;3.22;;;2.15;;
84623;SDS011;74849;51.340;12.610;2024-02-15T07:16:48;2.83;;;2.22;;
84623;SDS011;74849;51.340;12.610;2024-02-15T07:19:15;3.92;;;2.45;;
84623;SDS011;74849;51.340;12.610;2024-02-15T07:21:43;3.60;;;2.20;;
84623;SDS011;74849;51.340;12.610;2024-02-15T07:24:11;3.13;;;2.25;;
84623;SDS011;74849;51.340;12.610;2024-02-15T07:26:39;2.78;;;1.92;;
84623;SDS011;74849;51.340;12.610;2024-02-15T07:29:06;3.33;;;2.10;;
84623;SDS011;74849;51.340;12.610;2024-02-15T07:31:33;2.42;;;2.10;;
84623;SDS011;74849;51.340;12.610;2024-02-15T07:34:00;5.00;;;2.38;;
84623;SDS011;74849;51.340;12.610;2024-02-15T07:36:29;3.17;;;2.05;;
84623;SDS011;74849;51.340;12.610;2024-02-15T07:38:56;2.45;;;1.90;;
84623;SDS011;74849;51.340;12.610;2024-02-15T07:41:26;3.38;;;2.15;;
84623;SDS011;74849;51.340;12.610;2024-02-15T07:43:53;3.13;;;1.88;;
84623;SDS011;74849;51.340;12.610;2024-02-15T07:46:21;3.28;;;2.05;;
84623;SDS011;74849;51.340;12.610;2024-02-15T07:48:49;2.80;;;2.03;;
84623;SDS011;74849;51.340;12.610;2024-02-15T07:51:17;2.40;;;2.20;;
84623;SDS011;74849;51.340;12.610;2024-02-15T07:53:44;3.95;;;2.15;;
84623;SDS011;74849;51.340;12.610;2024-02-15T07:56:12;2.80;;;1.60;;
84623;SDS011;74849;51.340;12.610;2024-02-15T07:58:40;2.78;;;2.00;;
84623;SDS011;74849;51.340;12.610;2024-02-15T08:01:08;3.22;;;2.20;;
84623;SDS011;74849;51.340;12.610;2024-02-15T08:03:35;3.28;;;2.65;;
84623;SDS011;74849;51.340;12.610;2024-02-15T08:06:02;3.72;;;2.53;;
84623;SDS011;74849;51.340;12.610;2024-02-15T08:08:33;5.57;;;3.28;;
84623;SDS011;74849;51.340;12.610;2024-02-15T08:11:03;3.55;;;2.20;;
84623;SDS011;74849;51.340;12.610;2024-02-15T08:13:30;3.40;;;2.40;;
84623;SDS011;74849;51.340;12.610;2024-02-15T08:15:57;5.80;;;2.72;;
84623;SDS011;74849;51.340;12.610;2024-02-15T08:18:23;4.43;;;2.95;;
84623;SDS011;74849;51.340;12.610;2024-02-15T08:20:51;2.78;;;2.00;;
84623;SDS011;74849;51.340;12.610;2024-02-15T08:23:18;4.22;;;2.33;;
84623;SDS011;74849;51.340;12.610;2024-02-15T08:25:45;3.05;;;2.15;;
84623;SDS011;74849;51.340;12.610;2024-02-15T08:28:12;3.30;;;2.22;;
84623;SDS011;74849;51.340;12.610;2024-02-15T08:30:39;3.13;;;2.05;;
84623;SDS011;74849;51.340;12.610;2024-02-15T08:33:07;4.45;;;3.20;;
84623;SDS011;74849;51.340;12.610;2024-02-15T08:35:36;3.15;;;2.10;;
84623;SDS011;74849;51.340;12.610;2024-02-15T08:38:06;3.80;;;2.65;;
84623;SDS011;74849;51.340;12.610;2024-02-15T08:40:33;6.00;;;2.40;;
84623;SDS011;74849;51.340;12.610;2024-02-15T08:43:00;2.88;;;2.20;;
84623;SDS011;74849;51.340;12.610;2024-02-15T08:45:28;4.80;;;2.10;;
84623;SDS011;74849;51.340;12.610;2024-02-15T08:47:55;5.10;;;2.25;;
84623;SDS011;74849;51.340;12.610;2024-02-15T08:50:22;4.22;;;2.40;;
84623;SDS011;74849;51.340;12.610;2024-02-15T08:52:49;2.35;;;2.15;;
84623;SDS011;74849;51.340;12.610;2024-02-15T08:55:16;5.70;;;2.60;;
84623;SDS011;74849;51.340;12.610;2024-02-15T08:57:43;4.43;;;2.80;;
84623;SDS011;74849;51.340;12.610;2024-02-15T09:00:10;4.78;;;2.78;;
84623;SDS011;74849;51.340;12.610;2024-02-15T09:02:42;3.20;;;2.00;;
84623;SDS011;74849;51.340;12.610;2024-02-15T09:05:09;3.22;;;2.15;;
84623;SDS011;74849;51.340;12.610;2024-02-15T09:07:40;3.70;;;2.45;;
84623;SDS011;74849;51.340;12.610;2024-02-15T09:10:13;3.08;;;2.00;;
84623;SDS011;74849;51.340;12.610;2024-02-15T09:12:41;4.90;;;2.65;;
84623;SDS011;74849;51.340;12.610;2024-02-15T09:15:09;4.88;;;2.20;;
84623;SDS011;74849;51.340;12.610;2024-02-15T09:17:42;4.75;;;2.67;;
84623;SDS011;74849;51.340;12.610;2024-02-15T09:20:11;3.40;;;2.28;;
84623;SDS011;74849;51.340;12.610;2024-02-15T09:22:50;3.83;;;2.67;;
84623;SDS011;74849;51.340;12.610;2024-02-15T09:25:18;5.15;;;2.30;;
84623;SDS011;74849;51.340;12.610;2024-02-15T09:27:45;3.28;;;2.33;;
84623;SDS011;74849;51.340;12.610;2024-02-15T09:30:12;4.97;;;2.85;;
84623;SDS011;74849;51.340;12.610;2024-02-15T09:32:39;3.50;;;2.30;;
84623;SDS011;74849;51.340;12.610;2024-02-15T09:35:07;4.35;;;2.42;;
84623;SDS011;74849;51.340;12.610;2024-02-15T09:37:35;4.45;;;2.45;;
84623;SDS011;74849;51.340;12.610;2024-02-15T09:40:08;3.45;;;2.10;;
84623;SDS011;74849;51.340;12.610;2024-02-15T09:42:36;5.07;;;2.40;;
84623;SDS011;74849;51.340;12.610;2024-02-15T09:45:08;2.50;;;2.08;;
84623;SDS011;74849;51.340;12.610;2024-02-15T09:47:37;4.38;;;2.88;;
84623;SDS011;74849;51.340;12.610;2024-02-15T09:50:11;3.58;;;2.50;;
84623;SDS011;74849;51.340;12.610;2024-02-15T09:52:52;6.60;;;3.10;;
84623;SDS011;74849;51.340;12.610;2024-02-15T09:55:22;4.22;;;2.70;;
84623;SDS011;74849;51.340;12.610;2024-02-15T09:57:49;3.15;;;2.63;;
84623;SDS011;74849;51.340;12.610;2024-02-15T10:00:17;6.55;;;2.67;;
84623;SDS011;74849;51.340;12.610;2024-02-15T10:02:44;3.55;;;2.40;;
84623;SDS011;74849;51.340;12.610;2024-02-15T10:05:13;4.90;;;2.22;;
84623;SDS011;74849;51.340;12.610;2024-02-15T10:07:40;6.05;;;2.92;;
84623;SDS011;74849;51.340;12.610;2024-02-15T10:10:24;5.03;;;2.45;;
84623;SDS011;74849;51.340;12.610;2024-02-15T10:12:53;3.05;;;2.28;;
84623;SDS011;74849;51.340;12.610;2024-02-15T10:15:30;3.75;;;2.03;;
84623;SDS011;74849;51.340;12.610;2024-02-15T10:18:04;2.72;;;1.85;;
84623;SDS011;74849;51.340;12.610;2024-02-15T10:20:34;2.25;;;1.60;;
84623;SDS011;74849;51.340;12.610;2024-02-15T10:25:36;3.67;;;1.60;;
84623;SDS011;74849;51.340;12.610;2024-02-15T10:28:05;3.50;;;2.00;;
84623;SDS011;74849;51.340;12.610;2024-02-15T10:30:36;6.57;;;2.20;;
84623;SDS011;74849;51.340;12.610;2024-02-15T10:33:26;3.28;;;1.58;;
84623;SDS011;74849;51.340;12.610;2024-02-15T10:36:04;3.15;;;1.48;;
84623;SDS011;74849;51.340;12.610;2024-02-15T10:38:33;2.17;;;1.67;;
84623;SDS011;74849;51.340;12.610;2024-02-15T10:41:05;2.58;;;1.55;;
84623;SDS011;74849;51.340;12.610;2024-02-15T10:43:33;3.50;;;1.95;;
84623;SDS011;74849;51.340;12.610;2024-02-15T10:46:00;2.15;;;1.50;;
84623;SDS011;74849;51.340;12.610;2024-02-15T10:48:28;3.47;;;1.63;;
84623;SDS011;74849;51.340;12.610;2024-02-15T10:51:03;4.40;;;2.10;;
84623;SDS011;74849;51.340;12.610;2024-02-15T10:53:32;2.05;;;1.60;;
84623;SDS011;74849;51.340;12.610;2024-02-15T10:58:33;4.10;;;1.52;;
84623;SDS011;74849;51.340;12.610;2024-02-15T11:01:01;2.65;;;1.77;;
84623;SDS011;74849;51.340;12.610;2024-02-15T11:03:32;4.07;;;1.75;;
84623;SDS011;74849;51.340;12.610;2024-02-15T11:06:06;2.55;;;1.33;;
84623;SDS011;74849;51.340;12.610;2024-02-15T11:08:34;2.65;;;1.40;;
84623;SDS011;74849;51.340;12.610;2024-02-15T11:11:02;3.60;;;1.55;;
84623;SDS011;74849;51.340;12.610;2024-02-15T11:13:30;2.22;;;1.70;;
84623;SDS011;74849;51.340;12.610;2024-02-15T11:15:57;2.10;;;1.42;;
84623;SDS011;74849;51.340;12.610;2024-02-15T11:18:44;2.00;;;1.35;;
84623;SDS011;74849;51.340;12.610;2024-02-15T11:21:15;2.90;;;1.52;;
84623;SDS011;74849;51.340;12.610;2024-02-15T11:23:42;3.03;;;1.70;;
84623;SDS011;74849;51.340;12.610;2024-02-15T11:26:42;2.28;;;1.70;;
84623;SDS011;74849;51.340;12.610;2024-02-15T11:32:34;3.63;;;1.40;;
84623;SDS011;74849;51.340;12.610;2024-02-15T11:43:10;2.00;;;1.35;;
84623;SDS011;74849;51.340;12.610;2024-02-15T11:46:14;2.17;;;1.58;;
84623;SDS011;74849;51.340;12.610;2024-02-15T11:48:44;2.22;;;1.52;;
84623;SDS011;74849;51.340;12.610;2024-02-15T11:51:33;2.70;;;1.80;;
84623;SDS011;74849;51.340;12.610;2024-02-15T11:54:08;2.67;;;1.70;;
84623;SDS011;74849;51.340;12.610;2024-02-15T11:59:10;3.40;;;1.70;;
84623;SDS011;74849;51.340;12.610;2024-02-15T12:01:44;2.63;;;1.60;;
84623;SDS011;74849;51.340;12.610;2024-02-15T12:04:30;10.35;;;4.50;;
84623;SDS011;74849;51.340;12.610;2024-02-15T12:07:16;18.20;;;8.93;;
84623;SDS011;74849;51.340;12.610;2024-02-15T12:10:02;3.90;;;2.53;;
84623;SDS011;74849;51.340;12.610;2024-02-15T12:12:58;3.88;;;2.42;;
84623;SDS011;74849;51.340;12.610;2024-02-15T12:15:55;3.78;;;2.08;;
84623;SDS011;74849;51.340;12.610;2024-02-15T12:18:41;3.40;;;2.25;;
84623;SDS011;74849;51.340;12.610;2024-02-15T12:21:11;4.15;;;3.75;;
84623;SDS011;74849;51.340;12.610;2024-02-15T12:23:43;3.38;;;2.20;;
84623;SDS011;74849;51.340;12.610;2024-02-15T12:26:11;2.83;;;2.13;;
84623;SDS011;74849;51.340;12.610;2024-02-15T12:28:41;3.10;;;2.30;;
84623;SDS011;74849;51.340;12.610;2024-02-15T12:31:10;2.85;;;1.85;;
84623;SDS011;74849;51.340;12.610;2024-02-15T12:33:39;4.43;;;2.40;;
84623;SDS011;74849;51.340;12.610;2024-02-15T12:36:06;3.17;;;1.63;;
84623;SDS011;74849;51.340;12.610;2024-02-15T12:38:34;2.88;;;2.03;;
84623;SDS011;74849;51.340;12.610;2024-02-15T12:41:04;3.75;;;1.50;;
84623;SDS011;74849;51.340;12.610;2024-02-15T12:43:46;3.63;;;1.35;;
84623;SDS011;74849;51.340;12.610;2024-02-15T12:46:18;2.75;;;2.00;;
84623;SDS011;74849;51.340;12.610;2024-02-15T12:48:45;2.72;;;2.20;;
84623;SDS011;74849;51.340;12.610;2024-02-15T12:51:15;4.25;;;1.88;;
84623;SDS011;74849;51.340;12.610;2024-02-15T12:53:42;1.98;;;1.50;;
84623;SDS011;74849;51.340;12.610;2024-02-15T12:56:09;2.53;;;1.63;;
84623;SDS011;74849;51.340;12.610;2024-02-15T12:58:36;4.97;;;2.72;;
84623;SDS011;74849;51.340;12.610;2024-02-15T13:01:04;3.90;;;1.90;;
84623;SDS011;74849;51.340;12.610;2024-02-15T13:03:31;3.08;;;2.40;;
84623;SDS011;74849;51.340;12.610;2024-02-15T13:05:59;3.38;;;1.95;;
84623;SDS011;74849;51.340;12.610;2024-02-15T13:08:25;2.53;;;1.80;;
84623;SDS011;74849;51.340;12.610;2024-02-15T13:10:52;2.72;;;1.60;;
84623;SDS011;74849;51.340;12.610;2024-02-15T13:13:19;4.50;;;1.60;;
84623;SDS011;74849;51.340;12.610;2024-02-15T13:15:47;2.92;;;1.30;;
84623;SDS011;74849;51.340;12.610;2024-02-15T13:18:14;2.15;;;1.50;;
84623;SDS011;74849;51.340;12.610;2024-02-15T13:20:41;1.95;;;1.25;;
84623;SDS011;74849;51.340;12.610;2024-02-15T13:23:08;2.88;;;1.73;;
84623;SDS011;74849;51.340;12.610;2024-02-15T13:25:48;2.90;;;1.33;;
84623;SDS011;74849;51.340;12.610;2024-02-15T13:28:16;2.67;;;1.08;;
84623;SDS011;74849;51.340;12.610;2024-02-15T13:30:43;3.03;;;1.77;;
84623;SDS011;74849;51.340;12.610;2024-02-15T13:33:11;3.17;;;1.25;;
84623;SDS011;74849;51.340;12.610;2024-02-15T13:35:39;2.42;;;1.20;;
84623;SDS011;74849;51.340;12.610;2024-02-15T13:38:06;2.25;;;1.48;;
84623;SDS011;74849;51.340;12.610;2024-02-15T13:40:40;2.45;;;1.42;;
84623;SDS011;74849;51.340;12.610;2024-02-15T13:43:07;2.72;;;1.30;;
84623;SDS011;74849;51.340;12.610;2024-02-15T13:45:41;2.33;;;1.13;;
84623;SDS011;74849;51.340;12.610;2024-02-15T13:48:08;1.83;;;1.33;;
84623;SDS011;74849;51.340;12.610;2024-02-15T13:50:36;2.70;;;1.90;;
84623;SDS011;74849;51.340;12.610;2024-02-15T13:53:04;2.50;;;1.27;;
84623;SDS011;74849;51.340;12.610;2024-02-15T13:55:32;3.20;;;1.67;;
84623;SDS011;74849;51.340;12.610;2024-02-15T13:58:00;2.75;;;1.30;;
84623;SDS011;74849;51.340;12.610;2024-02-15T14:00:27;3.50;;;1.55;;
84623;SDS011;74849;51.340;12.610;2024-02-15T14:05:27;3.42;;;1.80;;
84623;SDS011;74849;51.340;12.610;2024-02-15T14:07:58;1.80;;;1.33;;
84623;SDS011;74849;51.340;12.610;2024-02-15T14:10:30;2.60;;;1.50;;
84623;SDS011;74849;51.340;12.610;2024-02-15T14:12:59;2.55;;;1.80;;
84623;SDS011;74849;51.340;12.610;2024-02-15T14:15:29;1.67;;;1.35;;
84623;SDS011;74849;51.340;12.610;2024-02-15T14:18:00;3.85;;;1.50;;
84623;SDS011;74849;51.340;12.610;2024-02-15T14:20:27;3.40;;;1.98;;
84623;SDS011;74849;51.340;12.610;2024-02-15T14:22:54;2.67;;;1.90;;
84623;SDS011;74849;51.340;12.610;2024-02-15T14:25:24;6.20;;;1.90;;
84623;SDS011;74849;51.340;12.610;2024-02-15T14:27:54;2.90;;;2.00;;
84623;SDS011;74849;51.340;12.610;2024-02-15T14:30:22;4.18;;;2.55;;
84623;SDS011;74849;51.340;12.610;2024-02-15T14:33:08;3.42;;;1.60;;
84623;SDS011;74849;51.340;12.610;2024-02-15T14:35:37;2.72;;;2.00;;
84623;SDS011;74849;51.340;12.610;2024-02-15T14:38:05;1.90;;;1.50;;
84623;SDS011;74849;51.340;12.610;2024-02-15T14:40:35;1.85;;;1.08;;
84623;SDS011;74849;51.340;12.610;2024-02-15T14:43:04;2.03;;;1.30;;
84623;SDS011;74849;51.340;12.610;2024-02-15T14:45:32;2.10;;;1.30;;
84623;SDS011;74849;51.340;12.610;2024-02-15T14:48:00;1.70;;;1.40;;
84623;SDS011;74849;51.340;12.610;2024-02-15T14:50:27;2.35;;;1.83;;
84623;SDS011;74849;51.340;12.610;2024-02-15T14:52:54;1.55;;;1.30;;
84623;SDS011;74849;51.340;12.610;2024-02-15T14:55:21;1.73;;;1.17;;
84623;SDS011;74849;51.340;12.610;2024-02-15T14:57:49;1.98;;;1.20;;
84623;SDS011;74849;51.340;12.610;2024-02-15T15:00:17;2.28;;;1.58;;
84623;SDS011;74849;51.340;12.610;2024-02-15T15:02:46;2.15;;;1.23;;
84623;SDS011;74849;51.340;12.610;2024-02-15T15:05:14;2.33;;;1.30;;
84623;SDS011;74849;51.340;12.610;2024-02-15T15:07:59;2.17;;;1.50;;
84623;SDS011;74849;51.340;12.610;2024-02-15T15:10:45;2.20;;;1.23;;
84623;SDS011;74849;51.340;12.610;2024-02-15T15:13:34;1.48;;;1.10;;
84623;SDS011;74849;51.340;12.610;2024-02-15T15:16:01;4.57;;;1.70;;
84623;SDS011;74849;51.340;12.610;2024-02-15T15:18:29;2.50;;;1.65;;
84623;SDS011;74849;51.340;12.610;2024-02-15T15:20:59;2.22;;;1.58;;
84623;SDS011;74849;51.340;12.610;2024-02-15T15:23:26;1.80;;;1.60;;
84623;SDS011;74849;51.340;12.610;2024-02-15T15:25:57;2.53;;;1.73;;
84623;SDS011;74849;51.340;12.610;2024-02-15T15:28:24;3.00;;;1.30;;
84623;SDS011;74849;51.340;12.610;2024-02-15T15:30:51;1.80;;;1.40;;
84623;SDS011;74849;51.340;12.610;2024-02-15T15:33:18;1.98;;;1.15;;
84623;SDS011;74849;51.340;12.610;2024-02-15T15:35:46;1.95;;;1.30;;
84623;SDS011;74849;51.340;12.610;2024-02-15T15:38:14;5.30;;;1.60;;
84623;SDS011;74849;51.340;12.610;2024-02-15T15:40:41;1.50;;;0.95;;
84623;SDS011;74849;51.340;12.610;2024-02-15T15:43:08;3.28;;;1.58;;
84623;SDS011;74849;51.340;12.610;2024-02-15T15:45:36;4.00;;;2.17;;
84623;SDS011;74849;51.340;12.610;2024-02-15T15:48:03;2.80;;;2.28;;
84623;SDS011;74849;51.340;12.610;2024-02-15T15:50:30;3.38;;;2.00;;
84623;SDS011;74849;51.340;12.610;2024-02-15T15:53:02;3.47;;;1.90;;
84623;SDS011;74849;51.340;12.610;2024-02-15T15:55:29;2.75;;;1.80;;
84623;SDS011;74849;51.340;12.610;2024-02-15T15:57:56;3.25;;;2.20;;
84623;SDS011;74849;51.340;12.610;2024-02-15T16:00:24;2.53;;;1.60;;
84623;SDS011;74849;51.340;12.610;2024-02-15T16:02:51;4.57;;;1.90;;
84623;SDS011;74849;51.340;12.610;2024-02-15T16:05:18;1.88;;;1.23;;
84623;SDS011;74849;51.340;12.610;2024-02-15T16:07:46;3.17;;;1.10;;
84623;SDS011;74849;51.340;12.610;2024-02-15T16:10:13;3.15;;;1.33;;
84623;SDS011;74849;51.340;12.610;2024-02-15T16:12:43;1.83;;;1.13;;
84623;SDS011;74849;51.340;12.610;2024-02-15T16:15:10;2.05;;;1.15;;
84623;SDS011;74849;51.340;12.610;2024-02-15T16:17:39;1.48;;;1.33;;
84623;SDS011;74849;51.340;12.610;2024-02-15T16:22:40;2.17;;;1.40;;
84623;SDS011;74849;51.340;12.610;2024-02-15T16:25:08;1.27;;;1.05;;
84623;SDS011;74849;51.340;12.610;2024-02-15T16:27:37;3.28;;;1.60;;
84623;SDS011;74849;51.340;12.610;2024-02-15T16:30:05;1.98;;;1.45;;
84623;SDS011;74849;51.340;12.610;2024-02-15T16:32:36;2.45;;;1.40;;
84623;SDS011;74849;51.340;12.610;2024-02-15T16:35:04;2.50;;;1.90;;
84623;SDS011;74849;51.340;12.610;2024-02-15T16:37:43;2.03;;;1.45;;
84623;SDS011;74849;51.340;12.610;2024-02-15T16:40:10;2.45;;;2.00;;
84623;SDS011;74849;51.340;12.610;2024-02-15T16:42:40;2.40;;;1.70;;
84623;SDS011;74849;51.340;12.610;2024-02-15T16:45:13;4.18;;;2.30;;
84623;SDS011;74849;51.340;12.610;2024-02-15T16:47:44;3.25;;;1.92;;
84623;SDS011;74849;51.340;12.610;2024-02-15T16:50:18;2.65;;;2.03;;
84623;SDS011;74849;51.340;12.610;2024-02-15T16:52:45;3.13;;;1.73;;
84623;SDS011;74849;51.340;12.610;2024-02-15T16:55:13;4.50;;;2.47;;
84623;SDS011;74849;51.340;12.610;2024-02-15T16:57:45;4.65;;;2.00;;
84623;SDS011;74849;51.340;12.610;2024-02-15T17:00:12;3.40;;;2.33;;
84623;SDS011;74849;51.340;12.610;2024-02-15T17:02:44;3.47;;;1.75;;
84623;SDS011;74849;51.340;12.610;2024-02-15T17:05:11;3.55;;;2.10;;
84623;SDS011;74849;51.340;12.610;2024-02-15T17:07:38;3.05;;;1.90;;
84623;SDS011;74849;51.340;12.610;2024-02-15T17:10:06;2.10;;;1.58;;
84623;SDS011;74849;51.340;12.610;2024-02-15T17:12:33;3.63;;;2.03;;
84623;SDS011;74849;51.340;12.610;2024-02-15T17:15:00;3.63;;;2.30;;
84623;SDS011;74849;51.340;12.610;2024-02-15T17:17:27;2.42;;;1.90;;
84623;SDS011;74849;51.340;12.610;2024-02-15T17:19:54;3.13;;;2.22;;
84623;SDS011;74849;51.340;12.610;2024-02-15T17:22:21;2.53;;;1.90;;
84623;SDS011;74849;51.340;12.610;2024-02-15T17:24:48;2.53;;;2.33;;
84623;SDS011;74849;51.340;12.610;2024-02-15T17:27:18;3.38;;;1.90;;
84623;SDS011;74849;51.340;12.610;2024-02-15T17:29:45;2.50;;;1.77;;
84623;SDS011;74849;51.340;12.610;2024-02-15T17:32:12;3.75;;;1.40;;
84623;SDS011;74849;51.340;12.610;2024-02-15T17:34:39;3.67;;;1.90;;
84623;SDS011;74849;51.340;12.610;2024-02-15T17:37:06;3.83;;;2.20;;
84623;SDS011;74849;51.340;12.610;2024-02-15T17:39:33;2.58;;;1.92;;
84623;SDS011;74849;51.340;12.610;2024-02-15T17:42:00;2.22;;;2.00;;
84623;SDS011;74849;51.340;12.610;2024-02-15T17:44:27;4.85;;;2.38;;
84623;SDS011;74849;51.340;12.610;2024-02-15T17:46:56;5.90;;;2.55;;
84623;SDS011;74849;51.340;12.610;2024-02-15T17:49:25;2.05;;;1.77;;
84623;SDS011;74849;51.340;12.610;2024-02-15T17:51:52;3.97;;;2.10;;
84623;SDS011;74849;51.340;12.610;2024-02-15T17:54:19;3.40;;;2.25;;
84623;SDS011;74849;51.340;12.610;2024-02-15T17:56:48;4.85;;;2.20;;
84623;SDS011;74849;51.340;12.610;2024-02-15T17:59:15;4.63;;;2.38;;
84623;SDS011;74849;51.340;12.610;2024-02-15T18:01:42;6.28;;;2.60;;
84623;SDS011;74849;51.340;12.610;2024-02-15T18:04:09;4.50;;;2.30;;
84623;SDS011;74849;51.340;12.610;2024-02-15T18:06:39;4.20;;;2.85;;
84623;SDS011;74849;51.340;12.610;2024-02-15T18:09:06;4.00;;;3.15;;
84623;SDS011;74849;51.340;12.610;2024-02-15T18:11:33;3.92;;;2.92;;
84623;SDS011;74849;51.340;12.610;2024-02-15T18:14:00;5.75;;;3.25;;
84623;SDS011;74849;51.340;12.610;2024-02-15T18:16:27;4.57;;;2.80;;
84623;SDS011;74849;51.340;12.610;2024-02-15T18:18:53;3.60;;;2.65;;
84623;SDS011;74849;51.340;12.610;2024-02-15T18:21:21;4.93;;;2.90;;
84623;SDS011;74849;51.340;12.610;2024-02-15T18:23:49;5.03;;;3.00;;
84623;SDS011;74849;51.340;12.610;2024-02-15T18:26:16;2.38;;;2.00;;
84623;SDS011;74849;51.340;12.610;2024-02-15T18:28:43;3.38;;;2.20;;
84623;SDS011;74849;51.340;12.610;2024-02-15T18:31:11;2.72;;;2.15;;
84623;SDS011;74849;51.340;12.610;2024-02-15T18:33:39;2.58;;;2.20;;
84623;SDS011;74849;51.340;12.610;2024-02-15T18:36:07;3.63;;;2.38;;
84623;SDS011;74849;51.340;12.610;2024-02-15T18:38:35;4.70;;;2.45;;
84623;SDS011;74849;51.340;12.610;2024-02-15T18:41:04;2.72;;;2.22;;
84623;SDS011;74849;51.340;12.610;2024-02-15T18:43:32;3.50;;;2.13;;
84623;SDS011;74849;51.340;12.610;2024-02-15T18:46:00;3.05;;;2.50;;
84623;SDS011;74849;51.340;12.610;2024-02-15T18:48:27;4.63;;;2.42;;
84623;SDS011;74849;51.340;12.610;2024-02-15T18:50:55;2.97;;;2.47;;
84623;SDS011;74849;51.340;12.610;2024-02-15T18:53:22;3.38;;;2.55;;
84623;SDS011;74849;51.340;12.610;2024-02-15T18:55:51;4.90;;;2.60;;
84623;SDS011;74849;51.340;12.610;2024-02-15T18:58:21;3.42;;;3.10;;
84623;SDS011;74849;51.340;12.610;2024-02-15T19:00:51;4.15;;;2.90;;
84623;SDS011;74849;51.340;12.610;2024-02-15T19:03:18;5.18;;;3.20;;
84623;SDS011;74849;51.340;12.610;2024-02-15T19:05:45;4.68;;;2.70;;
84623;SDS011;74849;51.340;12.610;2024-02-15T19:08:12;3.67;;;2.70;;
84623;SDS011;74849;51.340;12.610;2024-02-15T19:10:39;4.13;;;2.88;;
84623;SDS011;74849;51.340;12.610;2024-02-15T19:13:06;5.28;;;2.95;;
84623;SDS011;74849;51.340;12.610;2024-02-15T19:15:33;3.80;;;3.10;;
84623;SDS011;74849;51.340;12.610;2024-02-15T19:17:59;4.10;;;2.85;;
84623;SDS011;74849;51.340;12.610;2024-02-15T19:20:26;7.93;;;3.67;;
84623;SDS011;74849;51.340;12.610;2024-02-15T19:22:54;6.53;;;3.60;;
84623;SDS011;74849;51.340;12.610;2024-02-15T19:25:21;6.35;;;3.45;;
84623;SDS011;74849;51.340;12.610;2024-02-15T19:27:48;6.07;;;3.50;;
84623;SDS011;74849;51.340;12.610;2024-02-15T19:30:15;5.00;;;2.88;;
84623;SDS011;74849;51.340;12.610;2024-02-15T19:32:46;4.25;;;2.78;;
84623;SDS011;74849;51.340;12.610;2024-02-15T19:35:13;4.30;;;2.60;;
84623;SDS011;74849;51.340;12.610;2024-02-15T19:37:40;5.13;;;2.78;;
84623;SDS011;74849;51.340;12.610;2024-02-15T19:40:07;5.70;;;3.92;;
84623;SDS011;74849;51.340;12.610;2024-02-15T19:42:42;5.75;;;3.05;;
84623;SDS011;74849;51.340;12.610;2024-02-15T19:45:11;4.60;;;3.33;;
84623;SDS011;74849;51.340;12.610;2024-02-15T19:47:43;7.05;;;3.42;;
84623;SDS011;74849;51.340;12.610;2024-02-15T19:50:13;6.90;;;3.70;;
84623;SDS011;74849;51.340;12.610;2024-02-15T19:52:43;4.55;;;3.60;;
84623;SDS011;74849;51.340;12.610;2024-02-15T19:55:10;5.13;;;4.00;;
84623;SDS011;74849;51.340;12.610;2024-02-15T19:57:39;6.63;;;4.10;;
84623;SDS011;74849;51.340;12.610;2024-02-15T20:00:07;5.75;;;3.60;;
84623;SDS011;74849;51.340;12.610;2024-02-15T20:02:36;5.22;;;3.22;;
84623;SDS011;74849;51.340;12.610;2024-02-15T20:05:03;5.88;;;4.00;;
84623;SDS011;74849;51.340;12.610;2024-02-15T20:07:32;7.13;;;4.22;;
84623;SDS011;74849;51.340;12.610;2024-02-15T20:10:03;5.28;;;4.43;;
84623;SDS011;74849;51.340;12.610;2024-02-15T20:12:32;7.20;;;4.75;;
84623;SDS011;74849;51.340;12.610;2024-02-15T20:15:00;6.30;;;4.38;;
84623;SDS011;74849;51.340;12.610;2024-02-15T20:17:27;5.90;;;4.18;;
84623;SDS011;74849;51.340;12.610;2024-02-15T20:19:54;6.20;;;4.85;;
84623;SDS011;74849;51.340;12.610;2024-02-15T20:22:21;6.00;;;4.13;;
84623;SDS011;74849;51.340;12.610;2024-02-15T20:24:48;7.82;;;4.78;;
84623;SDS011;74849;51.340;12.610;2024-02-15T20:27:15;7.10;;;4.15;;
84623;SDS011;74849;51.340;12.610;2024-02-15T20:29:47;5.60;;;4.22;;
84623;SDS011;74849;51.340;12.610;2024-02-15T20:32:15;6.03;;;4.13;;
84623;SDS011;74849;51.340;12.610;2024-02-15T20:34:44;6.18;;;3.97;;
84623;SDS011;74849;51.340;12.610;2024-02-15T20:37:12;7.57;;;3.50;;
84623;SDS011;74849;51.340;12.610;2024-02-15T20:39:39;6.35;;;3.85;;
84623;SDS011;74849;51.340;12.610;2024-02-15T20:42:06;5.32;;;3.30;;
84623;SDS011;74849;51.340;12.610;2024-02-15T20:44:34;4.68;;;3.30;;